sensor_id;sensor_type;location;lat;lon;timestamp;temperature;humidity
1297;DHT22;641;48.492;9.184;2023-04-29T00:00:05;12.90;99.90
1297;DHT22;641;48.492;9.184;2023-04-29T00:02:31;12.90;99.90
1297;DHT22;641;48.492;9.184;2023-04-29T00:04:57;14.80;99.90
1297;DHT22;641;48.492;9.184;2023-04-29T00:07:23;13.00;99.90
1297;DHT22;641;48.492;9.184;2023-04-29T00:12:15;13.20;99.90
1297;DHT22;641;48.492;9.184;2023-04-29T00:14:40;14.10;99.90
1297;DHT22;641;48.492;9.184;2023-04-29T00:17:07;15.10;99.90
1297;DHT22;641;48.492;9.184;2023-04-29T00:19:33;14.80;99.90
1297;DHT22;641;48.492;9.184;2023-04-29T00:24:26;12.80;99.90
1297;DHT22;641;48.492;9.184;2023-04-29T00:26:51;12.80;99.90
1297;DHT22;641;48.492;9.184;2023-04-29T00:29:17;12.90;99.90
1297;DHT22;641;48.492;9.184;2023-04-29T00:31:43;13.90;99.90
1297;DHT22;641;48.492;9.184;2023-04-29T00:36:35;12.90;99.90
1297;DHT22;641;48.492;9.184;2023-04-29T00:39:01;13.30;99.90
1297;DHT22;641;48.492;9.184;2023-04-29T00:41:29;13.40;99.90
1297;DHT22;641;48.492;9.184;2023-04-29T00:43:55;13.70;99.90
1297;DHT22;641;48.492;9.184;2023-04-29T00:46:20;13.00;99.90
1297;DHT22;641;48.492;9.184;2023-04-29T00:48:46;14.70;99.90
1297;DHT22;641;48.492;9.184;2023-04-29T00:51:12;14.40;99.90
1297;DHT22;641;48.492;9.184;2023-04-29T00:53:38;14.40;99.90
1297;DHT22;641;48.492;9.184;2023-04-29T00:56:04;14.20;99.90
1297;DHT22;641;48.492;9.184;2023-04-29T00:58:32;12.60;99.90
1297;DHT22;641;48.492;9.184;2023-04-29T01:01:02;12.50;99.90
1297;DHT22;641;48.492;9.184;2023-04-29T01:03:29;13.10;99.90
1297;DHT22;641;48.492;9.184;2023-04-29T01:06:22;13.30;99.90
1297;DHT22;641;48.492;9.184;2023-04-29T01:11:33;13.30;99.90
1297;DHT22;641;48.492;9.184;2023-04-29T01:14:01;14.30;99.90
1297;DHT22;641;48.492;9.184;2023-04-29T01:16:45;13.80;99.90
1297;DHT22;641;48.492;9.184;2023-04-29T01:22:14;12.50;99.90
1297;DHT22;641;48.492;9.184;2023-04-29T01:24:42;13.40;99.90
1297;DHT22;641;48.492;9.184;2023-04-29T01:27:29;12.40;99.90
1297;DHT22;641;48.492;9.184;2023-04-29T01:30:15;13.20;99.90
1297;DHT22;641;48.492;9.184;2023-04-29T01:38:10;13.90;99.90
1297;DHT22;641;48.492;9.184;2023-04-29T01:40:46;12.70;99.90
1297;DHT22;641;48.492;9.184;2023-04-29T01:43:14;13.50;99.90
1297;DHT22;641;48.492;9.184;2023-04-29T01:45:42;14.40;99.90
1297;DHT22;641;48.492;9.184;2023-04-29T01:48:09;14.50;99.90
1297;DHT22;641;48.492;9.184;2023-04-29T01:50:35;14.10;99.90
1297;DHT22;641;48.492;9.184;2023-04-29T01:55:27;12.20;99.90
1297;DHT22;641;48.492;9.184;2023-04-29T01:57:52;12.50;99.90
1297;DHT22;641;48.492;9.184;2023-04-29T02:02:44;12.40;99.90
1297;DHT22;641;48.492;9.184;2023-04-29T02:07:36;12.50;99.90
1297;DHT22;641;48.492;9.184;2023-04-29T02:10:01;12.40;99.90
1297;DHT22;641;48.492;9.184;2023-04-29T02:12:27;12.30;99.90
1297;DHT22;641;48.492;9.184;2023-04-29T02:14:52;12.70;99.90
1297;DHT22;641;48.492;9.184;2023-04-29T02:19:44;12.20;99.90
1297;DHT22;641;48.492;9.184;2023-04-29T02:22:10;12.20;99.90
1297;DHT22;641;48.492;9.184;2023-04-29T02:24:37;13.10;99.90
1297;DHT22;641;48.492;9.184;2023-04-29T02:29:30;12.30;99.90
1297;DHT22;641;48.492;9.184;2023-04-29T02:31:56;12.20;99.90
1297;DHT22;641;48.492;9.184;2023-04-29T02:36:48;12.10;99.90
1297;DHT22;641;48.492;9.184;2023-04-29T02:39:14;14.10;99.90
1297;DHT22;641;48.492;9.184;2023-04-29T02:41:41;12.40;99.90
1297;DHT22;641;48.492;9.184;2023-04-29T02:44:06;13.90;99.90
1297;DHT22;641;48.492;9.184;2023-04-29T02:49:00;12.10;99.90
1297;DHT22;641;48.492;9.184;2023-04-29T02:51:26;12.30;99.90
1297;DHT22;641;48.492;9.184;2023-04-29T02:53:52;12.00;99.90
1297;DHT22;641;48.492;9.184;2023-04-29T02:56:18;12.90;99.90
1297;DHT22;641;48.492;9.184;2023-04-29T02:58:43;12.80;99.90
1297;DHT22;641;48.492;9.184;2023-04-29T03:01:09;13.60;99.90
1297;DHT22;641;48.492;9.184;2023-04-29T03:03:35;12.10;99.90
1297;DHT22;641;48.492;9.184;2023-04-29T03:06:00;14.00;99.90
1297;DHT22;641;48.492;9.184;2023-04-29T03:08:26;14.00;99.90
1297;DHT22;641;48.492;9.184;2023-04-29T03:10:52;14.10;99.90
1297;DHT22;641;48.492;9.184;2023-04-29T03:13:18;12.10;99.90
1297;DHT22;641;48.492;9.184;2023-04-29T03:15:43;12.10;99.90
1297;DHT22;641;48.492;9.184;2023-04-29T03:18:09;12.70;99.90
1297;DHT22;641;48.492;9.184;2023-04-29T03:20:35;12.20;99.90
1297;DHT22;641;48.492;9.184;2023-04-29T03:23:01;13.80;99.90
1297;DHT22;641;48.492;9.184;2023-04-29T03:27:53;12.20;99.90
1297;DHT22;641;48.492;9.184;2023-04-29T03:32:44;12.10;99.90
1297;DHT22;641;48.492;9.184;2023-04-29T03:35:10;12.60;99.90
1297;DHT22;641;48.492;9.184;2023-04-29T03:37:36;13.00;99.90
1297;DHT22;641;48.492;9.184;2023-04-29T03:40:02;12.10;99.90
1297;DHT22;641;48.492;9.184;2023-04-29T03:42:28;12.10;99.90
1297;DHT22;641;48.492;9.184;2023-04-29T03:44:54;12.60;99.90
1297;DHT22;641;48.492;9.184;2023-04-29T03:47:19;14.00;99.90
1297;DHT22;641;48.492;9.184;2023-04-29T03:49:45;13.90;99.90
1297;DHT22;641;48.492;9.184;2023-04-29T03:52:10;12.30;99.90
1297;DHT22;641;48.492;9.184;2023-04-29T03:54:37;13.90;99.90
1297;DHT22;641;48.492;9.184;2023-04-29T03:57:02;12.50;99.90
1297;DHT22;641;48.492;9.184;2023-04-29T03:59:29;11.70;99.90
1297;DHT22;641;48.492;9.184;2023-04-29T04:01:54;11.80;99.90
1297;DHT22;641;48.492;9.184;2023-04-29T04:06:46;11.80;99.90
1297;DHT22;641;48.492;9.184;2023-04-29T04:09:18;12.80;99.90
1297;DHT22;641;48.492;9.184;2023-04-29T04:11:44;12.40;99.90
1297;DHT22;641;48.492;9.184;2023-04-29T04:16:36;11.80;99.90
1297;DHT22;641;48.492;9.184;2023-04-29T04:19:02;11.90;99.90
1297;DHT22;641;48.492;9.184;2023-04-29T04:21:28;12.50;99.90
1297;DHT22;641;48.492;9.184;2023-04-29T04:23:54;13.20;99.90
1297;DHT22;641;48.492;9.184;2023-04-29T04:28:47;12.00;99.90
1297;DHT22;641;48.492;9.184;2023-04-29T04:31:13;13.60;99.90
1297;DHT22;641;48.492;9.184;2023-04-29T04:33:39;13.60;99.90
1297;DHT22;641;48.492;9.184;2023-04-29T04:36:05;11.70;99.90
1297;DHT22;641;48.492;9.184;2023-04-29T04:38:31;12.10;99.90
1297;DHT22;641;48.492;9.184;2023-04-29T04:40:57;13.00;99.90
1297;DHT22;641;48.492;9.184;2023-04-29T04:43:23;11.90;99.90
1297;DHT22;641;48.492;9.184;2023-04-29T04:45:48;12.10;99.90
1297;DHT22;641;48.492;9.184;2023-04-29T04:48:14;13.10;99.90
1297;DHT22;641;48.492;9.184;2023-04-29T04:50:39;13.00;99.90
1297;DHT22;641;48.492;9.184;2023-04-29T04:55:31;12.20;99.90
1297;DHT22;641;48.492;9.184;2023-04-29T04:57:58;12.50;99.90
1297;DHT22;641;48.492;9.184;2023-04-29T05:00:23;12.30;99.90
1297;DHT22;641;48.492;9.184;2023-04-29T05:02:49;13.30;99.90
1297;DHT22;641;48.492;9.184;2023-04-29T05:05:14;14.50;99.90
1297;DHT22;641;48.492;9.184;2023-04-29T05:07:40;12.60;99.90
1297;DHT22;641;48.492;9.184;2023-04-29T05:10:06;13.30;99.90
1297;DHT22;641;48.492;9.184;2023-04-29T05:12:32;12.80;99.90
1297;DHT22;641;48.492;9.184;2023-04-29T05:14:59;12.80;99.90
1297;DHT22;641;48.492;9.184;2023-04-29T05:17:25;12.90;99.90
1297;DHT22;641;48.492;9.184;2023-04-29T05:19:51;12.90;99.90
1297;DHT22;641;48.492;9.184;2023-04-29T05:22:17;13.00;99.90
1297;DHT22;641;48.492;9.184;2023-04-29T05:24:42;13.00;99.90
1297;DHT22;641;48.492;9.184;2023-04-29T05:27:08;13.10;99.90
1297;DHT22;641;48.492;9.184;2023-04-29T05:29:33;13.10;99.90
1297;DHT22;641;48.492;9.184;2023-04-29T05:31:59;13.10;99.90
1297;DHT22;641;48.492;9.184;2023-04-29T05:34:24;13.10;99.90
1297;DHT22;641;48.492;9.184;2023-04-29T05:36:50;13.10;99.90
1297;DHT22;641;48.492;9.184;2023-04-29T05:39:16;13.10;99.90
1297;DHT22;641;48.492;9.184;2023-04-29T05:41:42;13.20;99.90
1297;DHT22;641;48.492;9.184;2023-04-29T05:44:08;13.40;99.90
1297;DHT22;641;48.492;9.184;2023-04-29T05:46:34;13.50;99.90
1297;DHT22;641;48.492;9.184;2023-04-29T05:48:59;13.60;99.90
1297;DHT22;641;48.492;9.184;2023-04-29T05:51:25;14.10;99.90
1297;DHT22;641;48.492;9.184;2023-04-29T05:53:55;14.10;99.90
1297;DHT22;641;48.492;9.184;2023-04-29T05:56:21;13.90;99.90
1297;DHT22;641;48.492;9.184;2023-04-29T05:58:48;13.80;99.90
1297;DHT22;641;48.492;9.184;2023-04-29T06:01:38;13.90;99.90
1297;DHT22;641;48.492;9.184;2023-04-29T06:04:04;14.20;99.90
1297;DHT22;641;48.492;9.184;2023-04-29T06:06:30;14.40;99.90
1297;DHT22;641;48.492;9.184;2023-04-29T06:08:55;14.20;99.90
1297;DHT22;641;48.492;9.184;2023-04-29T06:11:21;15.90;99.90
1297;DHT22;641;48.492;9.184;2023-04-29T06:16:13;14.60;99.90
1297;DHT22;641;48.492;9.184;2023-04-29T06:21:05;14.40;99.90
1297;DHT22;641;48.492;9.184;2023-04-29T06:25:57;14.40;99.90
1297;DHT22;641;48.492;9.184;2023-04-29T06:30:48;14.30;99.90
1297;DHT22;641;48.492;9.184;2023-04-29T06:33:14;14.30;99.90
1297;DHT22;641;48.492;9.184;2023-04-29T06:35:40;14.20;99.90
1297;DHT22;641;48.492;9.184;2023-04-29T06:38:06;14.00;99.90
1297;DHT22;641;48.492;9.184;2023-04-29T06:40:33;13.80;99.90
1297;DHT22;641;48.492;9.184;2023-04-29T06:42:58;13.90;99.90
1297;DHT22;641;48.492;9.184;2023-04-29T06:45:24;13.90;99.90
1297;DHT22;641;48.492;9.184;2023-04-29T06:47:50;14.20;99.90
1297;DHT22;641;48.492;9.184;2023-04-29T06:50:15;14.50;99.90
1297;DHT22;641;48.492;9.184;2023-04-29T06:52:41;14.60;99.90
1297;DHT22;641;48.492;9.184;2023-04-29T06:55:07;14.50;99.90
1297;DHT22;641;48.492;9.184;2023-04-29T06:57:33;14.70;99.90
1297;DHT22;641;48.492;9.184;2023-04-29T06:59:58;14.70;99.90
1297;DHT22;641;48.492;9.184;2023-04-29T07:02:24;14.60;99.90
1297;DHT22;641;48.492;9.184;2023-04-29T07:04:49;14.80;99.90
1297;DHT22;641;48.492;9.184;2023-04-29T07:07:15;14.80;99.90
1297;DHT22;641;48.492;9.184;2023-04-29T07:09:41;14.60;99.90
1297;DHT22;641;48.492;9.184;2023-04-29T07:12:06;14.60;99.90
1297;DHT22;641;48.492;9.184;2023-04-29T07:14:34;14.90;99.90
1297;DHT22;641;48.492;9.184;2023-04-29T07:17:01;15.10;99.90
1297;DHT22;641;48.492;9.184;2023-04-29T07:19:27;15.00;99.90
1297;DHT22;641;48.492;9.184;2023-04-29T07:21:53;14.60;99.90
1297;DHT22;641;48.492;9.184;2023-04-29T07:24:18;14.90;99.90
1297;DHT22;641;48.492;9.184;2023-04-29T07:26:47;15.00;99.90
1297;DHT22;641;48.492;9.184;2023-04-29T07:29:17;14.90;99.90
1297;DHT22;641;48.492;9.184;2023-04-29T07:31:53;14.90;99.90
1297;DHT22;641;48.492;9.184;2023-04-29T07:34:21;15.10;99.90
1297;DHT22;641;48.492;9.184;2023-04-29T07:36:49;15.50;99.90
1297;DHT22;641;48.492;9.184;2023-04-29T07:39:15;16.40;99.90
1297;DHT22;641;48.492;9.184;2023-04-29T07:41:46;16.10;99.90
1297;DHT22;641;48.492;9.184;2023-04-29T07:44:17;14.90;99.90
1297;DHT22;641;48.492;9.184;2023-04-29T07:46:43;16.10;99.90
1297;DHT22;641;48.492;9.184;2023-04-29T07:49:08;16.20;99.90
1297;DHT22;641;48.492;9.184;2023-04-29T07:51:42;15.30;99.90
1297;DHT22;641;48.492;9.184;2023-04-29T07:54:10;15.70;99.90
1297;DHT22;641;48.492;9.184;2023-04-29T07:56:41;15.80;99.90
1297;DHT22;641;48.492;9.184;2023-04-29T07:59:14;15.70;99.90
1297;DHT22;641;48.492;9.184;2023-04-29T08:01:43;15.80;99.90
1297;DHT22;641;48.492;9.184;2023-04-29T08:04:11;15.40;99.90
1297;DHT22;641;48.492;9.184;2023-04-29T08:06:46;15.90;99.90
1297;DHT22;641;48.492;9.184;2023-04-29T08:09:37;16.50;99.90
1297;DHT22;641;48.492;9.184;2023-04-29T08:12:11;16.20;99.90
1297;DHT22;641;48.492;9.184;2023-04-29T08:14:36;16.80;99.90
1297;DHT22;641;48.492;9.184;2023-04-29T08:17:04;16.50;99.90
1297;DHT22;641;48.492;9.184;2023-04-29T08:19:30;16.20;99.90
1297;DHT22;641;48.492;9.184;2023-04-29T08:21:59;17.60;99.90
1297;DHT22;641;48.492;9.184;2023-04-29T08:24:25;16.50;99.90
1297;DHT22;641;48.492;9.184;2023-04-29T08:26:54;17.60;99.90
1297;DHT22;641;48.492;9.184;2023-04-29T08:29:22;16.60;99.90
1297;DHT22;641;48.492;9.184;2023-04-29T08:31:57;17.50;99.90
1297;DHT22;641;48.492;9.184;2023-04-29T08:34:22;16.10;99.90
1297;DHT22;641;48.492;9.184;2023-04-29T08:36:50;16.40;99.90
1297;DHT22;641;48.492;9.184;2023-04-29T08:39:16;16.40;99.90
1297;DHT22;641;48.492;9.184;2023-04-29T08:41:42;16.40;99.90
1297;DHT22;641;48.492;9.184;2023-04-29T08:44:14;15.90;99.90
1297;DHT22;641;48.492;9.184;2023-04-29T08:46:45;17.40;99.90
1297;DHT22;641;48.492;9.184;2023-04-29T08:54:04;16.10;99.90
1297;DHT22;641;48.492;9.184;2023-04-29T08:56:31;15.90;99.90
1297;DHT22;641;48.492;9.184;2023-04-29T08:58:58;16.00;99.90
1297;DHT22;641;48.492;9.184;2023-04-29T09:01:29;17.90;99.90
1297;DHT22;641;48.492;9.184;2023-04-29T09:06:58;17.90;99.90
1297;DHT22;641;48.492;9.184;2023-04-29T09:09:27;17.20;99.90
1297;DHT22;641;48.492;9.184;2023-04-29T09:11:55;17.10;99.90
1297;DHT22;641;48.492;9.184;2023-04-29T09:14:22;17.80;99.90
1297;DHT22;641;48.492;9.184;2023-04-29T09:16:48;17.50;99.90
1297;DHT22;641;48.492;9.184;2023-04-29T09:19:31;16.90;99.90
1297;DHT22;641;48.492;9.184;2023-04-29T09:21:58;18.40;99.90
1297;DHT22;641;48.492;9.184;2023-04-29T09:24:25;18.00;99.90
1297;DHT22;641;48.492;9.184;2023-04-29T09:26:51;19.00;99.90
1297;DHT22;641;48.492;9.184;2023-04-29T09:31:44;17.50;99.90
1297;DHT22;641;48.492;9.184;2023-04-29T09:34:10;18.80;99.90
1297;DHT22;641;48.492;9.184;2023-04-29T09:36:47;17.70;99.90
1297;DHT22;641;48.492;9.184;2023-04-29T09:39:22;17.20;99.90
1297;DHT22;641;48.492;9.184;2023-04-29T09:44:21;17.20;99.90
1297;DHT22;641;48.492;9.184;2023-04-29T09:52:01;17.20;99.90
1297;DHT22;641;48.492;9.184;2023-04-29T09:54:30;17.30;99.90
1297;DHT22;641;48.492;9.184;2023-04-29T09:56:57;17.50;99.90
1297;DHT22;641;48.492;9.184;2023-04-29T09:59:24;18.10;99.90
1297;DHT22;641;48.492;9.184;2023-04-29T10:01:54;17.70;99.90
1297;DHT22;641;48.492;9.184;2023-04-29T10:04:22;17.40;99.90
1297;DHT22;641;48.492;9.184;2023-04-29T10:06:49;17.60;99.90
1297;DHT22;641;48.492;9.184;2023-04-29T10:09:17;17.60;99.90
1297;DHT22;641;48.492;9.184;2023-04-29T10:11:44;17.90;99.90
1297;DHT22;641;48.492;9.184;2023-04-29T10:14:18;18.10;99.90
1297;DHT22;641;48.492;9.184;2023-04-29T10:17:02;17.60;99.90
1297;DHT22;641;48.492;9.184;2023-04-29T10:19:51;17.40;99.90
1297;DHT22;641;48.492;9.184;2023-04-29T10:22:26;17.50;99.90
1297;DHT22;641;48.492;9.184;2023-04-29T10:24:54;18.20;99.90
1297;DHT22;641;48.492;9.184;2023-04-29T10:27:22;18.00;99.90
1297;DHT22;641;48.492;9.184;2023-04-29T10:29:49;17.20;99.90
1297;DHT22;641;48.492;9.184;2023-04-29T10:32:16;17.40;99.90
1297;DHT22;641;48.492;9.184;2023-04-29T10:34:42;17.00;99.90
1297;DHT22;641;48.492;9.184;2023-04-29T10:37:10;17.00;99.90
1297;DHT22;641;48.492;9.184;2023-04-29T10:42:24;17.00;99.90
1297;DHT22;641;48.492;9.184;2023-04-29T10:45:18;17.30;99.90
1297;DHT22;641;48.492;9.184;2023-04-29T10:53:09;18.80;99.90
1297;DHT22;641;48.492;9.184;2023-04-29T10:55:36;19.30;99.90
1297;DHT22;641;48.492;9.184;2023-04-29T10:58:03;19.50;99.90
1297;DHT22;641;48.492;9.184;2023-04-29T11:00:31;19.80;99.90
1297;DHT22;641;48.492;9.184;2023-04-29T11:03:01;19.50;99.90
1297;DHT22;641;48.492;9.184;2023-04-29T11:05:31;19.80;99.90
1297;DHT22;641;48.492;9.184;2023-04-29T11:08:13;19.90;99.90
1297;DHT22;641;48.492;9.184;2023-04-29T11:10:47;19.20;99.90
1297;DHT22;641;48.492;9.184;2023-04-29T11:13:26;19.00;99.90
1297;DHT22;641;48.492;9.184;2023-04-29T11:15:53;19.30;99.90
1297;DHT22;641;48.492;9.184;2023-04-29T11:18:27;19.50;99.90
1297;DHT22;641;48.492;9.184;2023-04-29T11:23:40;19.70;99.90
1297;DHT22;641;48.492;9.184;2023-04-29T11:26:06;19.30;99.90
1297;DHT22;641;48.492;9.184;2023-04-29T11:28:32;18.90;99.90
1297;DHT22;641;48.492;9.184;2023-04-29T11:30:58;18.80;99.90
1297;DHT22;641;48.492;9.184;2023-04-29T11:33:25;19.00;99.90
1297;DHT22;641;48.492;9.184;2023-04-29T11:35:54;19.50;99.90
1297;DHT22;641;48.492;9.184;2023-04-29T11:38:27;19.40;99.90
1297;DHT22;641;48.492;9.184;2023-04-29T11:40:54;19.40;99.90
1297;DHT22;641;48.492;9.184;2023-04-29T11:43:21;19.30;99.90
1297;DHT22;641;48.492;9.184;2023-04-29T11:45:48;19.40;99.90
1297;DHT22;641;48.492;9.184;2023-04-29T11:48:21;19.70;99.90
1297;DHT22;641;48.492;9.184;2023-04-29T11:50:48;18.80;99.90
1297;DHT22;641;48.492;9.184;2023-04-29T11:53:14;18.80;99.90
1297;DHT22;641;48.492;9.184;2023-04-29T11:55:44;19.40;99.90
1297;DHT22;641;48.492;9.184;2023-04-29T11:58:09;19.40;99.90
1297;DHT22;641;48.492;9.184;2023-04-29T12:00:35;19.40;99.90
1297;DHT22;641;48.492;9.184;2023-04-29T12:03:06;19.50;99.90
1297;DHT22;641;48.492;9.184;2023-04-29T12:05:37;18.90;99.90
1297;DHT22;641;48.492;9.184;2023-04-29T12:08:02;19.30;99.90
1297;DHT22;641;48.492;9.184;2023-04-29T12:10:31;19.80;99.90
1297;DHT22;641;48.492;9.184;2023-04-29T12:12:57;19.10;99.90
1297;DHT22;641;48.492;9.184;2023-04-29T12:15:23;19.80;99.90
1297;DHT22;641;48.492;9.184;2023-04-29T12:17:49;19.80;99.90
1297;DHT22;641;48.492;9.184;2023-04-29T12:20:14;19.50;99.90
1297;DHT22;641;48.492;9.184;2023-04-29T12:22:41;19.50;99.90
1297;DHT22;641;48.492;9.184;2023-04-29T12:25:08;19.70;99.90
1297;DHT22;641;48.492;9.184;2023-04-29T12:27:35;19.80;99.90
1297;DHT22;641;48.492;9.184;2023-04-29T12:30:00;19.80;99.90
1297;DHT22;641;48.492;9.184;2023-04-29T12:32:26;20.30;99.90
1297;DHT22;641;48.492;9.184;2023-04-29T12:34:52;20.50;99.90
1297;DHT22;641;48.492;9.184;2023-04-29T12:37:17;20.50;99.90
1297;DHT22;641;48.492;9.184;2023-04-29T12:39:43;20.40;99.90
1297;DHT22;641;48.492;9.184;2023-04-29T12:42:15;20.20;99.90
1297;DHT22;641;48.492;9.184;2023-04-29T12:44:44;20.60;99.90
1297;DHT22;641;48.492;9.184;2023-04-29T12:47:11;20.20;99.90
1297;DHT22;641;48.492;9.184;2023-04-29T12:49:40;20.20;99.90
1297;DHT22;641;48.492;9.184;2023-04-29T12:52:06;20.30;99.90
1297;DHT22;641;48.492;9.184;2023-04-29T12:54:38;20.20;99.90
1297;DHT22;641;48.492;9.184;2023-04-29T12:57:08;20.30;99.90
1297;DHT22;641;48.492;9.184;2023-04-29T12:59:34;20.00;99.90
1297;DHT22;641;48.492;9.184;2023-04-29T13:02:00;19.40;99.90
1297;DHT22;641;48.492;9.184;2023-04-29T13:04:26;19.40;99.90
1297;DHT22;641;48.492;9.184;2023-04-29T13:06:52;19.10;99.90
1297;DHT22;641;48.492;9.184;2023-04-29T13:09:24;19.50;99.90
1297;DHT22;641;48.492;9.184;2023-04-29T13:14:16;19.50;99.90
1297;DHT22;641;48.492;9.184;2023-04-29T13:16:43;19.20;99.90
1297;DHT22;641;48.492;9.184;2023-04-29T13:19:09;19.30;99.90
1297;DHT22;641;48.492;9.184;2023-04-29T13:21:35;19.40;99.90
1297;DHT22;641;48.492;9.184;2023-04-29T13:24:00;19.60;99.90
1297;DHT22;641;48.492;9.184;2023-04-29T13:26:26;19.60;99.90
1297;DHT22;641;48.492;9.184;2023-04-29T13:28:52;19.20;99.90
1297;DHT22;641;48.492;9.184;2023-04-29T13:31:18;18.80;99.90
1297;DHT22;641;48.492;9.184;2023-04-29T13:36:09;19.20;99.90
1297;DHT22;641;48.492;9.184;2023-04-29T13:38:35;19.60;99.90
1297;DHT22;641;48.492;9.184;2023-04-29T13:41:01;19.70;99.90
1297;DHT22;641;48.492;9.184;2023-04-29T13:43:27;20.00;99.90
1297;DHT22;641;48.492;9.184;2023-04-29T13:45:54;20.50;99.90
1297;DHT22;641;48.492;9.184;2023-04-29T13:48:20;19.80;99.90
1297;DHT22;641;48.492;9.184;2023-04-29T13:50:48;19.80;99.90
1297;DHT22;641;48.492;9.184;2023-04-29T13:53:13;19.70;99.90
1297;DHT22;641;48.492;9.184;2023-04-29T13:55:41;19.10;99.90
1297;DHT22;641;48.492;9.184;2023-04-29T13:58:08;18.80;99.90
1297;DHT22;641;48.492;9.184;2023-04-29T14:00:33;18.80;99.90
1297;DHT22;641;48.492;9.184;2023-04-29T14:06:26;18.60;99.90
1297;DHT22;641;48.492;9.184;2023-04-29T14:08:52;19.00;99.90
1297;DHT22;641;48.492;9.184;2023-04-29T14:11:18;18.20;99.90
1297;DHT22;641;48.492;9.184;2023-04-29T14:13:43;18.40;99.90
1297;DHT22;641;48.492;9.184;2023-04-29T14:16:09;18.50;99.90
1297;DHT22;641;48.492;9.184;2023-04-29T14:18:35;18.40;99.90
1297;DHT22;641;48.492;9.184;2023-04-29T14:21:01;18.20;99.90
1297;DHT22;641;48.492;9.184;2023-04-29T14:25:52;18.30;99.90
1297;DHT22;641;48.492;9.184;2023-04-29T14:28:18;18.30;99.90
1297;DHT22;641;48.492;9.184;2023-04-29T14:30:44;18.00;99.90
1297;DHT22;641;48.492;9.184;2023-04-29T14:33:09;18.10;99.90
1297;DHT22;641;48.492;9.184;2023-04-29T14:35:35;17.70;99.90
1297;DHT22;641;48.492;9.184;2023-04-29T14:38:00;18.10;99.90
1297;DHT22;641;48.492;9.184;2023-04-29T14:40:26;17.30;99.90
